Time;durP1;ratioP1;P1;durP2;ratioP2;P2;SDS_P1;SDS_P2;PMS_P1;PMS_P2;Temp;Humidity;BMP_temperature;BMP_pressure;BME280_temperature;BME280_humidity;BME280_pressure;Samples;Min_cycle;Max_cycle;Signal;HPM_P1;HPM_P2
2021/10/30 00:01:30;;;;;;;4.95;4.45;;;22.10;41.40;;;;;;5061616;28;20449;-87
2021/10/30 00:03:56;;;;;;;4.87;4.37;;;22.10;41.50;;;;;;5086745;28;20890;-87
2021/10/30 00:06:21;;;;;;;4.78;4.38;;;22.10;41.40;;;;;;5074745;28;20388;-85
2021/10/30 00:08:47;;;;;;;4.90;4.47;;;22.00;41.40;;;;;;5071707;28;20396;-63
2021/10/30 00:11:13;;;;;;;4.60;4.20;;;22.00;41.40;;;;;;5070980;28;20396;-63
2021/10/30 00:13:38;;;;;;;5.20;4.47;;;22.00;41.10;;;;;;5070780;28;20400;-63
2021/10/30 00:16:04;;;;;;;5.00;4.50;;;22.00;41.40;;;;;;5071569;28;20390;-63
2021/10/30 00:18:30;;;;;;;4.18;3.78;;;22.00;41.30;;;;;;5075093;28;20395;-63
2021/10/30 00:20:58;;;;;;;4.43;4.03;;;22.00;41.30;;;;;;5075048;28;20897;-63
2021/10/30 00:23:23;;;;;;;4.10;3.70;;;22.00;41.40;;;;;;5075192;28;20485;-64
2021/10/30 00:25:49;;;;;;;4.35;3.95;;;22.00;41.40;;;;;;5075045;28;20391;-63
2021/10/30 00:28:15;;;;;;;4.47;4.07;;;21.90;41.20;;;;;;5074955;28;20383;-64
2021/10/30 00:30:40;;;;;;;4.35;3.95;;;21.90;41.30;;;;;;5075066;28;20880;-63
2021/10/30 00:33:06;;;;;;;4.50;4.10;;;21.90;41.30;;;;;;5074849;28;20916;-63
2021/10/30 00:35:32;;;;;;;4.00;3.60;;;21.90;41.40;;;;;;5074869;28;20520;-63
2021/10/30 00:37:58;;;;;;;4.30;3.90;;;21.90;41.40;;;;;;5056964;28;20897;-63
2021/10/30 00:40:24;;;;;;;4.50;4.10;;;21.90;41.20;;;;;;5074646;28;20399;-63
2021/10/30 00:42:50;;;;;;;4.00;3.60;;;21.90;41.30;;;;;;5074627;28;20394;-63
2021/10/30 00:45:16;;;;;;;3.63;3.33;;;21.90;41.60;;;;;;5074834;28;20383;-63
2021/10/30 00:47:42;;;;;;;4.20;3.80;;;22.00;41.60;;;;;;5074474;28;20873;-63
2021/10/30 00:50:08;;;;;;;3.97;3.57;;;22.00;41.60;;;;;;5074693;28;20753;-63
2021/10/30 00:52:34;;;;;;;4.05;3.60;;;22.10;41.50;;;;;;5056506;28;20423;-63
2021/10/30 00:55:02;;;;;;;4.13;3.72;;;22.10;41.40;;;;;;5056605;28;20892;-63
2021/10/30 00:57:28;;;;;;;4.00;3.60;;;22.20;41.40;;;;;;5074380;28;20754;-63
2021/10/30 00:59:55;;;;;;;3.88;3.50;;;22.30;41.50;;;;;;5056610;28;20821;-63
2021/10/30 01:02:22;;;;;;;4.25;3.70;;;22.30;41.50;;;;;;5074653;28;20380;-63
2021/10/30 01:04:48;;;;;;;3.60;3.30;;;22.30;41.30;;;;;;5074540;28;20471;-63
2021/10/30 01:07:14;;;;;;;3.75;3.42;;;22.40;41.40;;;;;;5074541;28;20400;-63
2021/10/30 01:09:40;;;;;;;3.75;3.45;;;22.40;41.30;;;;;;5074347;28;20378;-63
2021/10/30 01:12:08;;;;;;;3.65;3.17;;;22.40;41.20;;;;;;5073995;28;20419;-64
2021/10/30 01:14:34;;;;;;;3.60;3.17;;;22.40;41.20;;;;;;5074208;28;20445;-63
2021/10/30 01:17:02;;;;;;;3.20;2.90;;;22.40;41.10;;;;;;5074270;28;20420;-63
2021/10/30 01:19:29;;;;;;;3.47;3.17;;;22.50;41.10;;;;;;5074053;28;20376;-63
2021/10/30 01:21:55;;;;;;;3.20;2.90;;;22.50;41.00;;;;;;5073595;28;20400;-63
2021/10/30 01:24:21;;;;;;;3.50;3.05;;;22.50;41.00;;;;;;5074050;28;20392;-63
2021/10/30 01:26:47;;;;;;;3.30;3.00;;;22.50;41.00;;;;;;5055696;28;20743;-63
2021/10/30 01:29:14;;;;;;;3.38;3.08;;;22.50;40.80;;;;;;5072542;28;20833;-63
2021/10/30 01:31:40;;;;;;;3.60;3.05;;;22.50;40.80;;;;;;5073482;28;20781;-63
2021/10/30 01:34:07;;;;;;;3.47;3.17;;;22.60;40.80;;;;;;5073870;28;20399;-63
2021/10/30 01:36:35;;;;;;;3.47;3.17;;;22.50;40.80;;;;;;5073906;28;20832;-63
2021/10/30 01:39:02;;;;;;;3.20;2.90;;;22.60;40.80;;;;;;5073778;28;20396;-63
2021/10/30 01:41:28;;;;;;;3.47;3.17;;;22.60;40.80;;;;;;5055592;28;20399;-63
2021/10/30 01:43:57;;;;;;;3.23;2.90;;;22.60;40.80;;;;;;5073824;28;20748;-63
2021/10/30 01:46:25;;;;;;;3.00;2.70;;;22.60;40.80;;;;;;5055682;28;20395;-63
2021/10/30 01:48:52;;;;;;;3.67;3.10;;;22.60;40.80;;;;;;5073703;28;20388;-63
2021/10/30 01:51:19;;;;;;;3.05;2.75;;;22.60;40.80;;;;;;5073411;28;20919;-63
2021/10/30 01:53:45;;;;;;;3.15;2.85;;;22.60;40.80;;;;;;5073558;28;20408;-62
2021/10/30 01:56:11;;;;;;;3.20;2.90;;;22.60;40.80;;;;;;5073579;28;20884;-63
2021/10/30 01:58:37;;;;;;;3.17;2.88;;;22.60;40.70;;;;;;5073265;28;20399;-63
2021/10/30 02:01:05;;;;;;;3.10;2.80;;;22.60;40.70;;;;;;5073631;28;20380;-63
2021/10/30 02:03:31;;;;;;;3.00;2.75;;;22.60;40.70;;;;;;5055453;28;20392;-63
2021/10/30 02:05:58;;;;;;;2.90;2.70;;;22.60;40.60;;;;;;5072931;28;20392;-64
2021/10/30 02:08:24;;;;;;;3.25;2.95;;;22.60;40.60;;;;;;5073234;28;20450;-63
2021/10/30 02:10:50;;;;;;;2.87;2.67;;;22.60;40.60;;;;;;5073572;28;20869;-63
2021/10/30 02:13:16;;;;;;;3.00;2.70;;;22.60;40.60;;;;;;5073356;28;20423;-64
2021/10/30 02:15:41;;;;;;;3.10;2.80;;;22.60;40.50;;;;;;5073343;28;20436;-64
2021/10/30 02:18:07;;;;;;;2.90;2.60;;;22.60;40.50;;;;;;5073310;28;20483;-86
2021/10/30 02:20:33;;;;;;;2.60;2.40;;;22.60;40.50;;;;;;5072974;28;20399;-84
2021/10/30 02:22:59;;;;;;;3.13;2.83;;;22.60;40.50;;;;;;5073201;28;20471;-63
2021/10/30 02:25:25;;;;;;;3.10;2.80;;;22.60;40.60;;;;;;5072669;28;20793;-63
2021/10/30 02:27:51;;;;;;;3.13;2.80;;;22.60;40.70;;;;;;5073030;28;20449;-63
2021/10/30 02:30:18;;;;;;;3.10;2.70;;;22.60;40.60;;;;;;5054868;28;20453;-63
2021/10/30 02:32:44;;;;;;;2.95;2.65;;;22.60;40.60;;;;;;5072792;28;20408;-63
2021/10/30 02:35:11;;;;;;;3.03;2.72;;;22.60;40.50;;;;;;5072927;28;20394;-64
2021/10/30 02:37:38;;;;;;;2.88;2.58;;;22.60;40.60;;;;;;5072855;28;20387;-64
2021/10/30 02:40:04;;;;;;;2.60;2.40;;;22.60;40.60;;;;;;5072579;28;20882;-63
2021/10/30 02:42:30;;;;;;;3.05;2.60;;;22.60;40.60;;;;;;5071891;28;20400;-63
2021/10/30 02:44:56;;;;;;;3.20;2.90;;;22.60;40.60;;;;;;5072224;28;20393;-83
2021/10/30 02:47:21;;;;;;;3.30;3.00;;;22.60;40.60;;;;;;5072631;28;20798;-64
2021/10/30 02:49:47;;;;;;;3.17;2.88;;;22.60;40.60;;;;;;5072694;28;20396;-64
2021/10/30 02:52:13;;;;;;;2.90;2.60;;;22.60;40.60;;;;;;5072662;28;20419;-64
2021/10/30 02:54:38;;;;;;;2.83;2.40;;;22.60;40.60;;;;;;5072500;28;20409;-63
2021/10/30 02:57:04;;;;;;;2.83;2.53;;;22.60;40.60;;;;;;5072770;28;20423;-64
2021/10/30 02:59:30;;;;;;;3.00;2.70;;;22.60;40.50;;;;;;5072379;28;20387;-78
2021/10/30 03:01:55;;;;;;;3.20;2.90;;;22.60;40.40;;;;;;5073010;28;20403;-87
2021/10/30 03:04:21;;;;;;;2.95;2.65;;;22.60;40.50;;;;;;5073432;28;20384;-64
2021/10/30 03:06:47;;;;;;;2.77;2.50;;;22.60;40.40;;;;;;5054772;28;20784;-64
2021/10/30 03:09:12;;;;;;;2.83;2.60;;;22.60;40.40;;;;;;5054983;28;20392;-86
2021/10/30 03:11:39;;;;;;;2.67;2.40;;;22.60;40.50;;;;;;5072570;28;20766;-79
2021/10/30 03:14:05;;;;;;;3.15;2.63;;;22.60;40.50;;;;;;5072778;28;20399;-64
2021/10/30 03:16:31;;;;;;;2.80;2.50;;;22.60;40.50;;;;;;5072505;28;20388;-87
2021/10/30 03:18:56;;;;;;;2.60;2.40;;;22.60;40.50;;;;;;5072596;28;20887;-63
2021/10/30 03:21:23;;;;;;;3.10;2.80;;;22.60;40.40;;;;;;5072116;28;20434;-63
2021/10/30 03:23:49;;;;;;;2.83;2.53;;;22.60;40.40;;;;;;5054497;28;20453;-63
2021/10/30 03:26:14;;;;;;;3.10;2.80;;;22.60;40.50;;;;;;5072495;28;20384;-63
2021/10/30 03:28:40;;;;;;;2.97;2.67;;;22.60;40.40;;;;;;5072274;28;20482;-86
2021/10/30 03:31:06;;;;;;;2.83;2.53;;;22.60;40.30;;;;;;5054291;28;20384;-86
2021/10/30 03:33:31;;;;;;;2.65;2.45;;;22.60;40.30;;;;;;5072498;28;20484;-63
2021/10/30 03:35:57;;;;;;;2.80;2.60;;;22.60;40.30;;;;;;5072074;28;20384;-63
2021/10/30 03:38:23;;;;;;;2.75;2.55;;;22.60;40.30;;;;;;5072425;28;20388;-86
2021/10/30 03:40:49;;;;;;;2.90;2.60;;;22.60;40.40;;;;;;5072083;28;20388;-63
2021/10/30 03:43:15;;;;;;;2.70;2.50;;;22.60;40.30;;;;;;5072023;28;20437;-63
2021/10/30 03:45:41;;;;;;;2.90;2.53;;;22.60;40.20;;;;;;5072084;28;20391;-63
2021/10/30 03:48:10;;;;;;;2.40;2.20;;;22.60;40.30;;;;;;5072128;28;20818;-63
2021/10/30 03:50:39;;;;;;;2.75;2.40;;;22.60;40.20;;;;;;5071752;28;20715;-63
2021/10/30 03:53:08;;;;;;;2.58;2.38;;;22.60;40.30;;;;;;5076038;28;20465;-83
2021/10/30 03:55:33;;;;;;;2.80;2.50;;;22.60;40.20;;;;;;5076008;28;20471;-69
2021/10/30 03:57:59;;;;;;;2.70;2.50;;;22.60;40.30;;;;;;5075762;28;20527;-63
2021/10/30 04:00:25;;;;;;;2.90;2.67;;;22.60;40.30;;;;;;5057509;28;20485;-63
2021/10/30 04:02:51;;;;;;;2.80;2.40;;;22.60;40.30;;;;;;5076305;28;20380;-64
2021/10/30 04:05:17;;;;;;;2.90;2.50;;;22.60;40.30;;;;;;5075921;28;20738;-86
2021/10/30 04:07:43;;;;;;;2.65;2.45;;;22.60;40.40;;;;;;5076027;28;20403;-64
2021/10/30 04:10:09;;;;;;;2.80;2.50;;;22.60;40.30;;;;;;5076094;28;20383;-85
2021/10/30 04:12:35;;;;;;;2.90;2.60;;;22.60;40.30;;;;;;5075635;28;20439;-63
2021/10/30 04:15:01;;;;;;;2.63;2.42;;;22.60;40.20;;;;;;5075768;28;20380;-63
2021/10/30 04:17:27;;;;;;;2.55;2.35;;;22.60;40.20;;;;;;5075733;28;20395;-63
2021/10/30 04:19:52;;;;;;;2.67;2.37;;;22.60;40.20;;;;;;5075606;28;20573;-64
2021/10/30 04:22:18;;;;;;;4.70;2.95;;;22.60;40.30;;;;;;5075813;28;20399;-63
2021/10/30 04:24:44;;;;;;;4.50;2.70;;;22.60;40.20;;;;;;5057797;28;20475;-63
2021/10/30 04:27:09;;;;;;;6.43;2.40;;;22.60;40.50;;;;;;5075562;28;20388;-86
2021/10/30 04:29:35;;;;;;;5.37;2.47;;;22.70;40.90;;;;;;5075517;28;20487;-64
2021/10/30 04:32:03;;;;;;;8.23;2.90;;;22.70;41.40;;;;;;5075226;28;20411;-64
2021/10/30 04:34:46;;;;;;;5.25;2.90;;;22.80;41.20;;;;;;5075201;28;20808;-83
2021/10/30 04:37:16;;;;;;;4.93;2.60;;;22.90;41.30;;;;;;5075894;28;20436;-81
2021/10/30 04:39:52;;;;;;;6.38;2.70;;;22.90;41.60;;;;;;5075833;28;20479;-81
2021/10/30 04:42:18;;;;;;;7.00;2.70;;;22.90;41.80;;;;;;5075739;28;20971;-85
2021/10/30 04:44:45;;;;;;;6.70;2.47;;;23.00;42.00;;;;;;5075260;28;20388;-77
2021/10/30 04:47:13;;;;;;;5.10;2.45;;;23.00;41.70;;;;;;5074667;28;20459;-71
2021/10/30 04:49:40;;;;;;;4.15;2.58;;;23.00;41.60;;;;;;5075282;28;20380;-64
2021/10/30 04:52:07;;;;;;;5.20;2.50;;;23.00;41.50;;;;;;5075025;28;20405;-76
2021/10/30 04:54:32;;;;;;;6.30;2.60;;;23.00;41.90;;;;;;5075189;28;20483;-64
2021/10/30 04:56:58;;;;;;;4.67;2.67;;;23.00;42.00;;;;;;5074958;28;20466;-63
2021/10/30 04:59:24;;;;;;;5.78;2.65;;;23.00;41.90;;;;;;5074991;28;20392;-64
2021/10/30 05:01:49;;;;;;;5.93;2.40;;;23.10;41.90;;;;;;5057339;28;20437;-63
2021/10/30 05:04:15;;;;;;;5.10;2.33;;;23.00;41.50;;;;;;5074940;28;20388;-83
2021/10/30 05:06:41;;;;;;;4.35;2.45;;;23.00;41.10;;;;;;5073887;28;20392;-64
2021/10/30 05:09:06;;;;;;;3.47;2.40;;;23.00;40.70;;;;;;5074912;28;20410;-79
2021/10/30 05:11:32;;;;;;;5.07;2.55;;;23.00;40.70;;;;;;5074934;28;20414;-84
2021/10/30 05:13:58;;;;;;;3.83;2.30;;;22.90;40.60;;;;;;5074873;28;20464;-83
2021/10/30 05:16:23;;;;;;;3.45;2.40;;;22.90;40.60;;;;;;5074508;28;20438;-78
2021/10/30 05:18:49;;;;;;;4.37;2.60;;;22.80;40.60;;;;;;5074720;28;20392;-63
2021/10/30 05:21:15;;;;;;;6.57;2.42;;;22.90;40.70;;;;;;5074283;28;20395;-63
2021/10/30 05:23:42;;;;;;;6.35;2.50;;;22.90;40.90;;;;;;5074111;28;20391;-64
2021/10/30 05:26:08;;;;;;;6.63;2.30;;;22.90;41.60;;;;;;5074124;28;20457;-63
2021/10/30 05:28:35;;;;;;;5.65;2.20;;;22.90;41.20;;;;;;5073975;28;20453;-63
2021/10/30 05:31:01;;;;;;;7.70;2.58;;;22.90;41.30;;;;;;5074264;28;20392;-63
2021/10/30 05:33:27;;;;;;;4.97;2.30;;;23.00;41.30;;;;;;5073758;28;20415;-63
2021/10/30 05:35:53;;;;;;;4.90;2.65;;;22.90;40.30;;;;;;5073713;28;20390;-63
2021/10/30 05:38:19;;;;;;;5.43;2.53;;;22.90;39.20;;;;;;5073839;28;20396;-63
2021/10/30 05:40:46;;;;;;;4.28;2.30;;;22.80;39.50;;;;;;5055515;28;20392;-64
2021/10/30 05:43:12;;;;;;;3.97;2.40;;;22.70;39.50;;;;;;5073670;28;20874;-65
2021/10/30 05:45:39;;;;;;;5.82;2.80;;;22.60;39.50;;;;;;5073137;28;20887;-64
2021/10/30 05:48:06;;;;;;;3.80;2.53;;;22.60;39.50;;;;;;5073650;28;20406;-63
2021/10/30 05:50:32;;;;;;;6.63;2.30;;;22.60;39.90;;;;;;5055567;28;20749;-64
2021/10/30 05:52:58;;;;;;;4.18;2.55;;;22.60;39.80;;;;;;5073718;28;20414;-63
2021/10/30 05:55:24;;;;;;;5.00;3.07;;;22.50;40.60;;;;;;5073461;28;20923;-64
2021/10/30 05:57:50;;;;;;;3.53;2.45;;;22.50;40.10;;;;;;5073521;28;20406;-64
2021/10/30 06:00:15;;;;;;;7.55;2.60;;;22.50;40.30;;;;;;5055537;28;20391;-63
2021/10/30 06:02:41;;;;;;;4.90;2.50;;;22.50;40.70;;;;;;5073466;28;20403;-82
2021/10/30 06:05:07;;;;;;;5.90;2.33;;;22.50;40.80;;;;;;5073500;28;20396;-63
2021/10/30 06:07:33;;;;;;;6.22;2.55;;;22.50;41.20;;;;;;5073236;28;20530;-81
2021/10/30 06:10:00;;;;;;;4.70;2.30;;;22.50;40.70;;;;;;5073559;28;20884;-64
2021/10/30 06:12:26;;;;;;;4.20;2.50;;;22.50;40.90;;;;;;5073238;28;20497;-83
2021/10/30 06:14:52;;;;;;;4.57;2.45;;;22.50;40.70;;;;;;5072939;28;20722;-83
2021/10/30 06:17:18;;;;;;;4.60;2.60;;;22.60;40.70;;;;;;5073509;28;20395;-72
2021/10/30 06:19:43;;;;;;;4.30;2.70;;;22.50;40.50;;;;;;5073633;28;20877;-66
2021/10/30 06:22:09;;;;;;;3.47;2.40;;;22.50;40.80;;;;;;5073236;28;20781;-65
2021/10/30 06:24:34;;;;;;;4.45;2.50;;;22.50;40.40;;;;;;5073538;28;20848;-73
2021/10/30 06:27:00;;;;;;;3.37;2.50;;;22.50;40.60;;;;;;5055745;28;20455;-68
2021/10/30 06:29:28;;;;;;;5.57;2.88;;;22.50;40.50;;;;;;5072911;28;20397;-78
2021/10/30 06:31:54;;;;;;;3.83;2.72;;;22.50;41.00;;;;;;5072467;28;20431;-63
2021/10/30 06:34:20;;;;;;;4.70;2.55;;;22.50;40.70;;;;;;5055087;28;20384;-79
2021/10/30 06:36:46;;;;;;;6.50;2.60;;;22.50;41.00;;;;;;5086115;28;20445;-63
2021/10/30 06:39:11;;;;;;;5.00;2.50;;;22.50;40.90;;;;;;5081608;28;20388;-62
2021/10/30 06:41:37;;;;;;;5.40;2.35;;;22.50;40.80;;;;;;5075843;28;20391;-63
2021/10/30 06:44:03;;;;;;;6.18;2.65;;;22.50;41.10;;;;;;5058455;28;20388;-63
2021/10/30 06:46:29;;;;;;;4.90;2.40;;;22.50;40.80;;;;;;5083811;28;20484;-76
2021/10/30 06:48:56;;;;;;;5.20;2.50;;;22.50;40.90;;;;;;5087903;28;20378;-64
2021/10/30 06:51:23;;;;;;;3.83;2.30;;;22.50;40.80;;;;;;5092703;28;20428;-66
2021/10/30 06:53:49;;;;;;;5.35;2.40;;;22.50;40.80;;;;;;5076641;28;20516;-63
2021/10/30 06:56:15;;;;;;;4.03;2.40;;;22.40;41.10;;;;;;5072509;28;20857;-63
2021/10/30 06:58:41;;;;;;;2.93;2.50;;;22.40;41.00;;;;;;5071818;28;20395;-82
2021/10/30 07:01:07;;;;;;;4.07;2.33;;;22.40;40.90;;;;;;5071547;28;20390;-64
2021/10/30 07:03:33;;;;;;;4.13;2.47;;;22.40;40.90;;;;;;5071071;28;20965;-63
2021/10/30 07:05:59;;;;;;;3.70;2.40;;;22.40;41.00;;;;;;5071349;28;20502;-64
2021/10/30 07:08:25;;;;;;;3.88;2.30;;;22.40;41.30;;;;;;5071616;28;20410;-84
2021/10/30 07:10:51;;;;;;;5.20;2.35;;;22.40;42.00;;;;;;5071464;28;20406;-84
2021/10/30 07:13:16;;;;;;;4.28;2.15;;;22.30;41.80;;;;;;5056320;28;20978;-63
2021/10/30 07:15:42;;;;;;;5.30;2.20;;;22.40;41.70;;;;;;5054197;28;20934;-63
2021/10/30 07:18:08;;;;;;;4.30;2.20;;;22.40;41.50;;;;;;5055631;28;20472;-72
2021/10/30 07:20:33;;;;;;;3.88;2.40;;;22.40;41.40;;;;;;5052998;28;20488;-67
2021/10/30 07:22:59;;;;;;;4.47;3.42;;;22.50;41.20;;;;;;5055186;28;20392;-85
2021/10/30 07:25:25;;;;;;;5.43;3.35;;;22.40;39.70;;;;;;5053839;28;20403;-69
2021/10/30 07:27:52;;;;;;;4.87;3.50;;;22.40;39.70;;;;;;5052542;28;20387;-66
2021/10/30 07:30:19;;;;;;;8.65;3.58;;;22.40;40.10;;;;;;5055797;28;20398;-82
2021/10/30 07:32:51;;;;;;;8.88;3.60;;;22.40;40.30;;;;;;5053986;28;20419;-64
2021/10/30 07:35:17;;;;;;;8.38;3.58;;;22.40;40.20;;;;;;5056210;28;20402;-75
2021/10/30 07:37:42;;;;;;;7.22;3.28;;;22.40;40.40;;;;;;5053921;28;20444;-64
2021/10/30 07:40:09;;;;;;;6.40;3.60;;;22.40;40.60;;;;;;5051583;28;21238;-65
2021/10/30 07:42:35;;;;;;;7.50;3.30;;;22.40;40.80;;;;;;5054918;28;20447;-82
2021/10/30 07:45:01;;;;;;;6.35;3.50;;;22.40;40.70;;;;;;5055904;28;20446;-64
2021/10/30 07:47:27;;;;;;;7.57;3.60;;;22.40;40.80;;;;;;5053536;28;21291;-76
2021/10/30 07:49:53;;;;;;;7.55;3.50;;;22.40;40.60;;;;;;5053061;28;20410;-63
2021/10/30 07:52:18;;;;;;;5.63;3.17;;;22.40;40.50;;;;;;5053702;28;20409;-82
2021/10/30 07:54:44;;;;;;;7.10;3.25;;;22.40;40.30;;;;;;5053546;28;20398;-66
2021/10/30 07:57:11;;;;;;;5.37;2.77;;;22.40;40.30;;;;;;5054053;28;20390;-63
2021/10/30 07:59:40;;;;;;;4.35;3.00;;;22.40;40.20;;;;;;5054418;28;20391;-83
2021/10/30 08:02:07;;;;;;;7.05;3.17;;;22.40;40.20;;;;;;5056640;28;20390;-78
2021/10/30 08:04:33;;;;;;;7.72;3.10;;;22.40;40.10;;;;;;5051647;28;20385;-75
2021/10/30 08:06:59;;;;;;;3.88;2.92;;;22.40;40.20;;;;;;5038066;28;20400;-66
2021/10/30 08:09:25;;;;;;;5.07;3.10;;;22.40;40.30;;;;;;5054107;28;20389;-68
2021/10/30 08:11:51;;;;;;;3.70;2.95;;;22.40;40.30;;;;;;5053515;28;20504;-65
2021/10/30 08:14:17;;;;;;;3.63;2.67;;;22.50;40.30;;;;;;5070983;28;20422;-71
2021/10/30 08:16:43;;;;;;;4.38;2.70;;;22.40;40.40;;;;;;5055718;28;20494;-65
2021/10/30 08:19:08;;;;;;;4.50;2.80;;;22.40;40.40;;;;;;5069293;28;20861;-76
2021/10/30 08:21:35;;;;;;;3.88;2.72;;;22.40;40.50;;;;;;5053630;28;20409;-77
2021/10/30 08:24:02;;;;;;;4.13;2.90;;;22.40;40.60;;;;;;5069881;28;20451;-64
2021/10/30 08:26:29;;;;;;;3.50;2.80;;;22.40;40.70;;;;;;5054224;28;20440;-65
2021/10/30 08:28:55;;;;;;;4.03;3.03;;;22.40;40.60;;;;;;5053767;28;20390;-63
2021/10/30 08:31:22;;;;;;;4.22;2.65;;;22.40;40.60;;;;;;5038042;28;20519;-70
2021/10/30 08:33:47;;;;;;;3.83;2.80;;;22.40;40.50;;;;;;5053243;28;20582;-64
2021/10/30 08:36:13;;;;;;;3.58;2.75;;;22.40;40.60;;;;;;5054882;28;20476;-64
2021/10/30 08:38:39;;;;;;;4.50;2.90;;;22.40;40.60;;;;;;5058701;28;20445;-86
2021/10/30 08:41:05;;;;;;;4.13;2.80;;;22.40;40.50;;;;;;5058448;28;20410;-69
2021/10/30 08:43:31;;;;;;;5.87;3.50;;;22.40;40.40;;;;;;5057716;28;20390;-73
2021/10/30 08:46:00;;;;;;;4.75;3.10;;;22.40;40.50;;;;;;5057496;28;20391;-79
2021/10/30 08:48:28;;;;;;;6.30;3.17;;;22.40;40.50;;;;;;5057683;28;20398;-79
2021/10/30 08:50:55;;;;;;;4.72;2.80;;;22.40;40.50;;;;;;5058602;28;20398;-81
2021/10/30 08:53:22;;;;;;;6.20;3.30;;;22.40;40.60;;;;;;5038049;28;20872;-85
2021/10/30 08:55:51;;;;;;;4.00;2.75;;;22.50;40.60;;;;;;5056891;28;20758;-63
2021/10/30 08:58:18;;;;;;;5.18;3.08;;;22.50;40.70;;;;;;5058991;28;20479;-63
2021/10/30 09:00:53;;;;;;;4.35;2.88;;;22.50;40.60;;;;;;5058564;28;20871;-66
2021/10/30 09:03:20;;;;;;;3.50;2.72;;;22.50;40.60;;;;;;5059470;28;20486;-68
2021/10/30 09:05:49;;;;;;;5.40;2.95;;;22.50;40.70;;;;;;5040709;28;20391;-64
2021/10/30 09:08:15;;;;;;;4.75;2.95;;;22.50;40.50;;;;;;5058716;28;20408;-68
2021/10/30 09:10:50;;;;;;;4.35;3.05;;;22.50;40.50;;;;;;5059561;28;20476;-85
2021/10/30 09:13:19;;;;;;;3.60;3.08;;;22.50;40.50;;;;;;5059687;28;20947;-63
2021/10/30 09:15:50;;;;;;;3.80;2.65;;;22.50;40.50;;;;;;5057372;28;20424;-64
2021/10/30 09:18:30;;;;;;;3.35;2.50;;;22.50;40.50;;;;;;5059255;28;20471;-75
2021/10/30 09:20:57;;;;;;;4.03;2.80;;;22.50;40.50;;;;;;5039480;28;20399;-64
2021/10/30 09:23:27;;;;;;;3.53;2.45;;;22.50;40.50;;;;;;5057473;28;20469;-71
2021/10/30 09:26:01;;;;;;;3.40;2.40;;;22.60;40.40;;;;;;5057647;28;20394;-64
2021/10/30 09:28:54;;;;;;;3.03;2.42;;;22.60;40.40;;;;;;5053470;28;20777;-69
2021/10/30 09:31:22;;;;;;;3.92;2.45;;;22.60;40.40;;;;;;5058445;28;20381;-66
2021/10/30 09:33:54;;;;;;;3.45;2.53;;;22.60;40.30;;;;;;5057164;28;20882;-66
2021/10/30 09:36:21;;;;;;;3.03;2.40;;;22.60;40.30;;;;;;5056758;28;20389;-86
2021/10/30 09:38:53;;;;;;;3.78;2.47;;;22.70;40.30;;;;;;5040288;28;20777;-85
2021/10/30 09:41:30;;;;;;;2.70;2.40;;;22.70;40.30;;;;;;5058857;28;20393;-85
2021/10/30 09:44:24;;;;;;;3.13;2.50;;;22.70;40.20;;;;;;5057075;28;20952;-64
2021/10/30 09:46:53;;;;;;;3.25;2.50;;;22.80;40.40;;;;;;5053945;28;20494;-66
2021/10/30 09:49:21;;;;;;;2.83;2.53;;;22.80;40.40;;;;;;5057612;28;20528;-69
2021/10/30 09:52:05;;;;;;;2.67;2.40;;;22.80;40.50;;;;;;5056153;28;20393;-85
2021/10/30 09:54:39;;;;;;;2.78;2.20;;;22.70;40.50;;;;;;5057677;28;20444;-66
2021/10/30 09:57:27;;;;;;;2.70;2.50;;;22.70;40.40;;;;;;5057602;28;20396;-87
2021/10/30 09:59:54;;;;;;;3.05;2.40;;;22.80;40.50;;;;;;5040634;28;20424;-64
2021/10/30 10:02:22;;;;;;;2.90;2.60;;;22.80;40.40;;;;;;5058894;28;20388;-81
2021/10/30 10:04:49;;;;;;;3.80;2.60;;;22.70;40.60;;;;;;5058669;28;20881;-64
2021/10/30 10:07:18;;;;;;;2.80;2.58;;;22.80;40.40;;;;;;5058811;28;20745;-64
2021/10/30 10:09:45;;;;;;;2.40;2.20;;;22.80;40.40;;;;;;5055126;28;20472;-64
2021/10/30 10:12:15;;;;;;;2.97;2.20;;;22.80;40.30;;;;;;5038624;28;20492;-77
2021/10/30 10:14:42;;;;;;;3.20;2.50;;;22.90;40.30;;;;;;5058721;28;20967;-63
2021/10/30 10:17:09;;;;;;;2.80;2.47;;;22.80;40.10;;;;;;5056692;28;20380;-64
2021/10/30 10:19:37;;;;;;;2.85;2.50;;;22.80;40.10;;;;;;5057182;28;20394;-67
2021/10/30 10:22:03;;;;;;;2.90;2.55;;;22.80;40.10;;;;;;5057417;28;20458;-67
2021/10/30 10:24:35;;;;;;;3.50;2.47;;;22.80;40.20;;;;;;5059854;28;20389;-64
2021/10/30 10:27:04;;;;;;;2.75;2.50;;;22.80;40.20;;;;;;5055021;28;20392;-64
2021/10/30 10:29:31;;;;;;;2.60;2.33;;;22.80;40.30;;;;;;5056600;28;20397;-76
2021/10/30 10:32:21;;;;;;;2.90;2.60;;;22.90;40.40;;;;;;5059208;28;20469;-64
2021/10/30 10:34:48;;;;;;;2.92;2.42;;;22.90;40.40;;;;;;5045254;28;20412;-66
2021/10/30 10:37:14;;;;;;;2.67;2.47;;;22.90;40.40;;;;;;5057090;28;20891;-69
2021/10/30 10:39:45;;;;;;;4.00;2.70;;;22.80;40.40;;;;;;5055098;28;20400;-81
2021/10/30 10:42:13;;;;;;;3.10;2.80;;;22.80;40.40;;;;;;5054776;28;20380;-83
2021/10/30 10:44:41;;;;;;;2.73;2.53;;;22.80;40.40;;;;;;5057390;28;20401;-63
2021/10/30 10:47:31;;;;;;;2.63;2.40;;;22.80;40.40;;;;;;5056972;28;20393;-64
2021/10/30 10:50:07;;;;;;;2.88;2.58;;;22.80;40.40;;;;;;5055552;28;20396;-63
2021/10/30 10:52:33;;;;;;;2.63;2.43;;;22.90;40.50;;;;;;5055241;28;20833;-81
2021/10/30 10:54:59;;;;;;;2.97;2.67;;;22.90;40.50;;;;;;5055146;28;21306;-63
2021/10/30 10:57:34;;;;;;;2.95;2.60;;;22.90;40.50;;;;;;5056697;28;20464;-65
2021/10/30 11:00:15;;;;;;;3.00;2.45;;;22.90;40.50;;;;;;5055915;28;20431;-68
2021/10/30 11:02:48;;;;;;;2.67;2.47;;;22.90;40.40;;;;;;5054692;28;20466;-64
2021/10/30 11:05:14;;;;;;;2.55;2.35;;;22.90;40.40;;;;;;5056701;28;21001;-63
2021/10/30 11:07:50;;;;;;;2.60;2.40;;;22.90;40.50;;;;;;5054394;28;20403;-80
2021/10/30 11:10:30;;;;;;;2.60;2.30;;;22.90;40.50;;;;;;5056585;28;21051;-65
2021/10/30 11:12:58;;;;;;;2.53;2.33;;;22.90;40.50;;;;;;5055025;28;20706;-66
2021/10/30 11:15:25;;;;;;;2.50;2.30;;;22.90;40.40;;;;;;5056159;28;20457;-69
2021/10/30 11:17:59;;;;;;;2.60;2.40;;;22.90;40.40;;;;;;5035632;28;20916;-84
2021/10/30 11:20:41;;;;;;;3.20;2.63;;;22.90;40.40;;;;;;5053389;28;20405;-64
2021/10/30 11:23:23;;;;;;;3.00;2.70;;;22.90;40.40;;;;;;5054585;28;20395;-63
2021/10/30 11:26:11;;;;;;;2.72;2.53;;;22.90;40.40;;;;;;5055884;28;20453;-71
2021/10/30 11:28:38;;;;;;;2.90;2.60;;;22.90;40.40;;;;;;5052919;28;20397;-63
2021/10/30 11:31:24;;;;;;;2.97;2.67;;;22.90;40.30;;;;;;5053673;28;20383;-67
2021/10/30 11:34:01;;;;;;;3.00;2.70;;;23.00;40.40;;;;;;5054593;28;20422;-64
2021/10/30 11:36:29;;;;;;;3.15;2.75;;;23.00;40.40;;;;;;5055457;28;20446;-63
2021/10/30 11:38:57;;;;;;;2.80;2.50;;;23.00;40.40;;;;;;5056203;28;20462;-79
2021/10/30 11:41:28;;;;;;;3.03;2.72;;;22.90;40.30;;;;;;5054027;28;20411;-66
2021/10/30 11:44:09;;;;;;;3.30;2.73;;;23.00;40.40;;;;;;5057441;28;20410;-82
2021/10/30 11:46:45;;;;;;;2.80;2.60;;;23.00;40.40;;;;;;5052885;28;20930;-64
2021/10/30 11:49:14;;;;;;;3.00;2.70;;;23.00;40.40;;;;;;5052707;28;20426;-82
2021/10/30 11:51:41;;;;;;;2.90;2.60;;;23.00;40.30;;;;;;5054686;28;20397;-64
2021/10/30 11:54:11;;;;;;;2.80;2.50;;;23.00;40.30;;;;;;5054589;28;20394;-68
2021/10/30 11:56:38;;;;;;;2.70;2.50;;;23.00;40.30;;;;;;5053387;28;20417;-81
2021/10/30 11:59:06;;;;;;;2.60;2.40;;;23.00;40.30;;;;;;5054007;28;20748;-69
2021/10/30 12:01:41;;;;;;;2.90;2.65;;;23.00;40.30;;;;;;5056047;28;20480;-66
2021/10/30 12:04:09;;;;;;;2.85;2.55;;;23.10;40.30;;;;;;5053885;28;20910;-63
2021/10/30 12:06:42;;;;;;;2.50;2.30;;;23.10;40.20;;;;;;5054023;28;21121;-70
2021/10/30 12:09:26;;;;;;;2.97;2.67;;;23.10;40.20;;;;;;5053011;28;20392;-66
2021/10/30 12:11:55;;;;;;;2.63;2.42;;;23.10;40.10;;;;;;5067930;28;20960;-64
2021/10/30 12:14:36;;;;;;;2.60;2.40;;;23.10;40.20;;;;;;5057754;28;20798;-63
2021/10/30 12:17:04;;;;;;;2.80;2.47;;;23.10;40.20;;;;;;5059044;28;20391;-66
2021/10/30 12:19:34;;;;;;;2.72;2.50;;;23.10;40.20;;;;;;5059370;28;20466;-65
2021/10/30 12:22:30;;;;;;;2.85;2.55;;;23.10;40.10;;;;;;5058795;28;20416;-80
2021/10/30 12:25:14;;;;;;;2.60;2.40;;;23.20;40.20;;;;;;5060072;28;20403;-71
2021/10/30 12:27:48;;;;;;;2.90;2.50;;;23.20;40.20;;;;;;5059012;28;20412;-73
2021/10/30 12:30:18;;;;;;;2.85;2.55;;;23.20;40.20;;;;;;5040046;28;20497;-63
2021/10/30 12:32:45;;;;;;;3.10;2.53;;;23.20;40.10;;;;;;5057242;28;20618;-77
2021/10/30 12:35:19;;;;;;;3.35;2.67;;;23.20;40.20;;;;;;5075157;28;20389;-82
2021/10/30 12:37:47;;;;;;;4.30;2.63;;;23.20;40.10;;;;;;5059012;28;20395;-68
2021/10/30 12:40:14;;;;;;;3.03;2.70;;;23.20;40.20;;;;;;5058855;28;20393;-68
2021/10/30 12:42:41;;;;;;;3.40;2.50;;;23.20;40.10;;;;;;5057481;28;20394;-70
2021/10/30 12:45:07;;;;;;;4.55;2.67;;;23.30;40.20;;;;;;5060237;28;20420;-64
2021/10/30 12:47:33;;;;;;;3.78;2.88;;;23.30;40.10;;;;;;5057953;28;20427;-71
2021/10/30 12:50:09;;;;;;;4.93;2.55;;;23.30;40.10;;;;;;5057426;28;20379;-65
2021/10/30 12:52:45;;;;;;;3.20;2.30;;;23.30;40.10;;;;;;5056037;28;21319;-73